Anchorage, AK

2:09 AM AKST on January 19, 2017 (GMT -0900)
Prospect Heights | | Change Station

Elev 1018 ft 61.13 °N, 149.72 °W | Updated 36 seconds ago

Light Freezing Fog
Freezing Fog
-5.8 °F
Feels Like -5.8 °F
N
0.0
Wind Variable Wind from SSE
Gusts 0.0 mph

Today
High -- | Low -- °F
--% Chance of Precip.
Yesterday
High -- | Low -- °F
Precip. -- in
Pressure 29.33 in
Visibility 0.1 miles
Clouds
Dew Point -18.9 °F
Humidity 52%
Rainfall 0.00 in
Snow Depth Not available.
9:48 AM 4:32 PM
Waning Gibbous, 54% visible
METAR PAMR 191053Z 07003KT 1/8SM FZFG VV002 M24/M26 A2931 RMK AO2 SNE48 SLP931 P0000 T12391261 $
Pressure 29.33 in
Visibility 0.1 miles
Clouds
Dew Point -18.9 °F
Humidity 52%
Rainfall 0.00 in
Snow Depth Not available.
9:48 AM 4:32 PM
Waning Gibbous, 54% visible
METAR PAMR 191053Z 07003KT 1/8SM FZFG VV002 M24/M26 A2931 RMK AO2 SNE48 SLP931 P0000 T12391261 $

Get Your Daily Forecast Email!

Thanks for signing up!

Be on the lookout for a verification email in your inbox.

You'll start receiving the daily forecast at 8 AM.

×

10-Day Weather Forecast

Almanac

Astronomy

Jan. 19, 2017 Rise Set
Actual Time
Civil Twilight
Nautical Twilight
Astronomical Twilight
Moon
Length of Visible Light
Length of Day
Tomorrow will be .
, % of the Moon is Illuminated

Today's Extremes

State Highs State Lows

Community

WunderPhotos

Upload Photos

1,962,540 photos uploaded!

WunderBlog® & News

Nearby

Air Quality

  Air Quality AQ Index Pollutant
Not available.

Snow Depth

Station Depth Elevation

Earthquake Activity

City Distance Mag. Time & Date
Minimum magnitude displayed is 2.5.

Coastal Water Temperatures

Place Temperature

Stations

Nearby Weather Stations

Station Location Temp. Windchill Dew Point Humidity Wind Precip. Elev Updated Type
                   

Watches & Warnings

There are currently no watches in effect.